Time;durP1;ratioP1;P1;durP2;ratioP2;P2;SDS_P1;SDS_P2;PMS_P1;PMS_P2;Temp;Humidity;BMP_temperature;BMP_pressure;BME280_temperature;BME280_humidity;BME280_pressure;Samples;Min_cycle;Max_cycle;Signal;HPM_P1;HPM_P2
2023/08/04 00:00:09;;;;;;;8.88;1.42;;;17.10;99.90;;;;;;6160169;23;20017;-79
2023/08/04 00:02:36;;;;;;;2.83;0.82;;;17.00;99.90;;;;;;6160255;23;20025;-80
2023/08/04 00:05:02;;;;;;;4.75;1.10;;;17.00;99.90;;;;;;6186957;23;20036;-80
2023/08/04 00:07:27;;;;;;;2.78;0.90;;;16.90;99.90;;;;;;6186933;23;20017;-81
2023/08/04 00:09:53;;;;;;;3.83;0.90;;;17.00;99.90;;;;;;6160379;23;20020;-79
2023/08/04 00:12:19;;;;;;;5.65;1.10;;;17.00;99.90;;;;;;6160264;23;20025;-79
2023/08/04 00:14:49;;;;;;;5.45;1.00;;;16.90;99.90;;;;;;6186630;23;20013;-79
2023/08/04 00:17:15;;;;;;;4.13;0.70;;;17.00;99.90;;;;;;6160325;23;20023;-79
2023/08/04 00:19:41;;;;;;;3.95;0.90;;;16.90;99.90;;;;;;6160296;23;20017;-80
2023/08/04 00:22:07;;;;;;;3.15;0.80;;;16.90;99.90;;;;;;6160227;23;20096;-79
2023/08/04 00:24:33;;;;;;;4.85;1.05;;;16.90;99.90;;;;;;6160190;23;20063;-80
2023/08/04 00:27:00;;;;;;;4.15;0.85;;;16.90;99.90;;;;;;6160028;23;20348;-79
2023/08/04 00:29:26;;;;;;;5.82;0.90;;;16.90;99.90;;;;;;6160160;23;20341;-80
2023/08/04 00:31:51;;;;;;;2.72;0.70;;;16.90;99.90;;;;;;6159999;23;20468;-79
2023/08/04 00:34:17;;;;;;;3.97;0.75;;;16.90;99.90;;;;;;6160244;23;20021;-80
2023/08/04 00:36:44;;;;;;;7.15;1.00;;;17.00;99.90;;;;;;6160014;23;20028;-80
2023/08/04 00:39:10;;;;;;;4.28;0.93;;;17.00;99.90;;;;;;6186509;23;20076;-79
2023/08/04 00:41:35;;;;;;;6.00;0.75;;;16.90;99.90;;;;;;6186709;23;20017;-79
2023/08/04 00:44:02;;;;;;;2.78;0.63;;;16.90;99.90;;;;;;6186660;23;20013;-79
2023/08/04 00:46:29;;;;;;;5.38;0.80;;;16.90;99.90;;;;;;6159884;23;20055;-79
2023/08/04 00:48:56;;;;;;;2.25;0.95;;;16.90;99.90;;;;;;6159960;23;20088;-79
2023/08/04 00:51:22;;;;;;;6.18;1.42;;;16.90;99.90;;;;;;6186674;23;20021;-79
2023/08/04 00:53:48;;;;;;;3.63;0.90;;;16.90;99.90;;;;;;6186146;23;20386;-79
2023/08/04 00:56:15;;;;;;;4.88;1.02;;;16.90;99.90;;;;;;6186046;23;20458;-79
2023/08/04 00:58:41;;;;;;;6.05;1.33;;;16.80;99.90;;;;;;6186508;23;20045;-80
2023/08/04 01:01:06;;;;;;;2.50;0.98;;;16.80;99.90;;;;;;6159866;23;20013;-80
2023/08/04 01:03:33;;;;;;;5.47;1.20;;;16.80;99.90;;;;;;6159793;23;20025;-80
2023/08/04 01:06:35;;;;;;;5.65;1.02;;;16.80;99.90;;;;;;6159743;23;20092;-80
2023/08/04 01:09:13;;;;;;;5.97;1.43;;;16.80;99.90;;;;;;6186868;23;20025;-80
2023/08/04 01:11:46;;;;;;;4.97;1.02;;;16.90;99.90;;;;;;6159796;23;20013;-80
2023/08/04 01:14:13;;;;;;;7.25;1.05;;;16.90;99.90;;;;;;6159808;23;20445;-79
2023/08/04 01:16:38;;;;;;;6.20;0.77;;;16.90;99.90;;;;;;6186298;23;20342;-80
2023/08/04 01:19:04;;;;;;;4.13;0.70;;;17.00;99.90;;;;;;6159771;23;20017;-80
2023/08/04 01:21:39;;;;;;;3.88;0.90;;;16.90;99.90;;;;;;6159522;23;20016;-80
2023/08/04 01:24:05;;;;;;;4.30;0.85;;;16.90;99.90;;;;;;6185999;23;20469;-80
2023/08/04 01:26:33;;;;;;;4.00;1.00;;;16.80;99.90;;;;;;6159451;23;20028;-79
2023/08/04 01:29:00;;;;;;;4.85;1.05;;;16.80;99.90;;;;;;6159597;23;20319;-79
2023/08/04 01:31:26;;;;;;;6.13;1.50;;;16.90;99.90;;;;;;6186082;23;20476;-80
2023/08/04 01:33:51;;;;;;;5.78;1.00;;;16.80;99.90;;;;;;6159606;23;20017;-79
2023/08/04 01:36:17;;;;;;;7.22;1.05;;;16.80;99.90;;;;;;6159509;23;20021;-80
2023/08/04 01:38:43;;;;;;;4.13;0.80;;;16.70;99.90;;;;;;6159688;23;20071;-79
2023/08/04 01:41:08;;;;;;;3.20;1.00;;;16.70;99.90;;;;;;6159670;23;20017;-79
2023/08/04 01:43:34;;;;;;;4.20;1.70;;;16.80;99.90;;;;;;6186229;23;20025;-79
2023/08/04 01:46:00;;;;;;;5.43;1.27;;;16.70;99.90;;;;;;6158431;23;20025;-79
2023/08/04 01:48:26;;;;;;;4.20;1.05;;;16.80;99.90;;;;;;6159465;23;20013;-79
2023/08/04 01:50:52;;;;;;;5.30;1.20;;;16.80;99.90;;;;;;6186086;23;20025;-79
2023/08/04 01:53:19;;;;;;;4.05;0.80;;;16.80;99.90;;;;;;6159365;23;20013;-79
2023/08/04 01:55:54;;;;;;;5.55;1.00;;;16.70;99.90;;;;;;6159500;23;20345;-80
2023/08/04 01:58:20;;;;;;;3.78;0.82;;;16.70;99.90;;;;;;6159661;23;20017;-80
2023/08/04 02:00:46;;;;;;;3.05;0.93;;;16.70;99.90;;;;;;6185910;23;20327;-79
2023/08/04 02:03:14;;;;;;;6.22;1.58;;;16.70;99.90;;;;;;6185759;23;20453;-80
2023/08/04 02:05:48;;;;;;;6.55;1.25;;;16.70;99.90;;;;;;6159405;23;20025;-80
2023/08/04 02:08:13;;;;;;;5.03;1.48;;;16.70;99.90;;;;;;6159575;23;20103;-80
2023/08/04 02:10:49;;;;;;;4.10;2.22;;;16.70;99.90;;;;;;6160507;23;20063;-80
2023/08/04 02:13:15;;;;;;;3.40;1.45;;;16.70;99.90;;;;;;6161426;23;20029;-79
2023/08/04 02:15:41;;;;;;;3.53;1.30;;;16.70;99.90;;;;;;6161390;23;20040;-79
2023/08/04 02:18:06;;;;;;;3.75;0.90;;;16.70;99.90;;;;;;6161478;23;20425;-79
2023/08/04 02:20:32;;;;;;;2.33;0.77;;;16.70;99.90;;;;;;6161418;23;20515;-79
2023/08/04 02:22:58;;;;;;;3.80;1.15;;;16.70;99.90;;;;;;6161311;23;20017;-79
2023/08/04 02:25:23;;;;;;;3.10;0.95;;;16.70;99.90;;;;;;6161326;23;20021;-79
2023/08/04 02:27:49;;;;;;;2.45;0.85;;;16.60;99.90;;;;;;6161349;23;20017;-80
2023/08/04 02:30:15;;;;;;;3.25;0.63;;;16.70;99.90;;;;;;6186335;23;20017;-79
2023/08/04 02:32:40;;;;;;;5.30;1.00;;;16.60;99.90;;;;;;6187955;23;20027;-80
2023/08/04 02:35:06;;;;;;;3.50;0.85;;;16.60;99.90;;;;;;6161281;23;20457;-80
2023/08/04 02:37:34;;;;;;;4.13;0.80;;;16.50;99.90;;;;;;6187603;23;20028;-79
2023/08/04 02:40:00;;;;;;;3.90;1.10;;;16.60;99.90;;;;;;6161202;23;20071;-80
2023/08/04 02:42:27;;;;;;;2.67;0.88;;;16.60;99.90;;;;;;6161191;23;20048;-80
2023/08/04 02:44:54;;;;;;;5.25;1.02;;;16.60;99.90;;;;;;6160913;23;20032;-80
2023/08/04 02:47:20;;;;;;;1.98;0.90;;;16.60;99.90;;;;;;6160798;23;20013;-81
2023/08/04 02:49:46;;;;;;;5.25;0.90;;;16.50;99.90;;;;;;6186144;23;20024;-80
2023/08/04 02:52:14;;;;;;;4.15;1.00;;;16.50;99.90;;;;;;6160958;23;20101;-79
2023/08/04 02:54:40;;;;;;;4.47;0.85;;;16.60;99.90;;;;;;6187190;23;20397;-80
2023/08/04 02:57:09;;;;;;;3.97;1.60;;;16.50;99.90;;;;;;6160961;23;20020;-80
2023/08/04 02:59:36;;;;;;;4.18;1.10;;;16.50;99.90;;;;;;6161026;23;20024;-79
2023/08/04 03:02:02;;;;;;;5.05;1.40;;;16.50;99.90;;;;;;6160947;23;20465;-79
2023/08/04 03:04:27;;;;;;;4.15;1.35;;;16.60;99.90;;;;;;6187244;23;20485;-80
2023/08/04 03:06:53;;;;;;;5.65;1.67;;;16.60;99.90;;;;;;6187657;23;20044;-80
2023/08/04 03:09:19;;;;;;;4.90;1.40;;;16.70;99.90;;;;;;6187263;23;20020;-81
2023/08/04 03:11:45;;;;;;;6.07;1.60;;;16.70;99.90;;;;;;6160966;23;20051;-79
2023/08/04 03:14:10;;;;;;;6.57;1.67;;;16.70;99.90;;;;;;6160817;23;20021;-79
2023/08/04 03:16:36;;;;;;;6.53;1.95;;;16.60;99.90;;;;;;6187556;23;20013;-78
2023/08/04 03:19:01;;;;;;;2.78;1.27;;;16.50;99.90;;;;;;6160949;23;20103;-79
2023/08/04 03:21:27;;;;;;;6.38;1.55;;;16.50;99.90;;;;;;6160295;23;20043;-80
2023/08/04 03:24:13;;;;;;;3.53;1.52;;;16.40;99.90;;;;;;6187116;23;20017;-80
2023/08/04 03:26:38;;;;;;;4.43;1.60;;;16.40;99.90;;;;;;6140229;23;20100;-80
2023/08/04 03:29:04;;;;;;;4.93;1.50;;;16.40;99.90;;;;;;6187007;23;20059;-80
2023/08/04 03:31:30;;;;;;;4.55;1.33;;;16.40;99.90;;;;;;6187418;23;20059;-79
2023/08/04 03:33:55;;;;;;;4.25;1.52;;;16.30;99.90;;;;;;6186943;23;20015;-80
2023/08/04 03:36:21;;;;;;;5.45;1.40;;;16.20;99.90;;;;;;6160575;23;20017;-80
2023/08/04 03:38:46;;;;;;;3.63;1.40;;;16.20;99.90;;;;;;6187263;23;20068;-81
2023/08/04 03:41:12;;;;;;;4.15;1.65;;;16.20;99.90;;;;;;6187332;23;20017;-80
2023/08/04 03:43:38;;;;;;;4.38;1.80;;;16.10;99.90;;;;;;6186899;23;20009;-81
2023/08/04 03:46:03;;;;;;;5.43;1.45;;;16.00;99.90;;;;;;6160539;23;20025;-81
2023/08/04 03:48:29;;;;;;;5.43;1.52;;;15.90;99.90;;;;;;6160649;23;20438;-80
2023/08/04 03:50:54;;;;;;;4.45;1.50;;;15.90;99.90;;;;;;6186966;23;20032;-81
2023/08/04 03:53:20;;;;;;;6.10;1.95;;;15.90;99.90;;;;;;6186667;23;20024;-81
2023/08/04 03:55:46;;;;;;;2.90;1.20;;;15.90;99.90;;;;;;6187343;23;20029;-81
2023/08/04 03:58:11;;;;;;;4.65;1.63;;;15.90;99.90;;;;;;6187049;23;20133;-81
2023/08/04 04:00:37;;;;;;;5.93;1.52;;;15.80;99.90;;;;;;6187193;23;20333;-81
2023/08/04 04:03:04;;;;;;;4.07;1.48;;;15.80;99.90;;;;;;6160284;23;20013;-81
2023/08/04 04:05:29;;;;;;;5.82;1.75;;;15.80;99.90;;;;;;6159351;23;20092;-80
2023/08/04 04:07:55;;;;;;;4.50;1.70;;;15.80;99.90;;;;;;6186619;23;20053;-80
2023/08/04 04:10:21;;;;;;;5.13;1.83;;;15.80;99.90;;;;;;6186972;23;20068;-80
2023/08/04 04:12:46;;;;;;;3.38;1.45;;;15.80;99.90;;;;;;6186933;23;20049;-80
2023/08/04 04:15:12;;;;;;;4.47;1.52;;;15.80;99.90;;;;;;6160231;23;20395;-80
2023/08/04 04:17:40;;;;;;;5.80;1.50;;;15.90;99.90;;;;;;6186775;23;20013;-80
2023/08/04 04:20:07;;;;;;;3.88;1.42;;;15.90;99.90;;;;;;6186409;23;20017;-80
2023/08/04 04:22:33;;;;;;;5.63;1.33;;;15.90;99.90;;;;;;6186781;23;20016;-80
2023/08/04 04:25:00;;;;;;;4.22;1.58;;;16.00;99.90;;;;;;6186492;23;20071;-80
2023/08/04 04:27:26;;;;;;;4.63;1.48;;;15.90;99.90;;;;;;6160158;23;20021;-80
2023/08/04 04:29:52;;;;;;;4.18;1.35;;;16.00;99.90;;;;;;6186374;23;20009;-80
2023/08/04 04:32:17;;;;;;;2.88;1.13;;;15.90;99.90;;;;;;6186670;23;20076;-80
2023/08/04 04:34:43;;;;;;;2.83;1.42;;;16.00;99.90;;;;;;6160083;23;20374;-80
2023/08/04 04:37:08;;;;;;;5.75;1.33;;;16.00;99.90;;;;;;6186207;23;20081;-81
2023/08/04 04:39:35;;;;;;;4.15;1.50;;;16.00;99.90;;;;;;6160268;23;20025;-80
2023/08/04 04:42:03;;;;;;;3.65;1.40;;;16.00;99.90;;;;;;6186271;23;20028;-80
2023/08/04 04:44:28;;;;;;;4.18;1.40;;;16.10;99.90;;;;;;6159840;23;20049;-81
2023/08/04 04:46:54;;;;;;;3.78;1.27;;;16.10;99.90;;;;;;6160613;23;20032;-80
2023/08/04 04:49:20;;;;;;;4.93;1.67;;;16.10;99.90;;;;;;6159945;23;20020;-80
2023/08/04 04:51:48;;;;;;;3.38;1.40;;;16.10;99.90;;;;;;6186190;23;20028;-80
2023/08/04 04:54:14;;;;;;;4.70;1.40;;;16.10;99.90;;;;;;6184479;23;20048;-80
2023/08/04 04:56:40;;;;;;;3.70;1.63;;;16.10;99.90;;;;;;6159768;23;20029;-79
2023/08/04 04:59:05;;;;;;;3.70;1.50;;;16.10;99.90;;;;;;6186432;23;20088;-80
2023/08/04 05:01:31;;;;;;;5.95;1.90;;;16.10;99.90;;;;;;6186450;23;20064;-80
2023/08/04 05:03:57;;;;;;;5.15;1.98;;;16.10;99.90;;;;;;6186115;23;20033;-80
2023/08/04 05:06:22;;;;;;;5.68;1.90;;;16.20;99.90;;;;;;6186297;23;20499;-80
2023/08/04 05:08:48;;;;;;;6.40;1.83;;;16.30;99.90;;;;;;6159725;23;20024;-80
2023/08/04 05:11:14;;;;;;;5.47;1.88;;;16.30;99.90;;;;;;6186001;23;20021;-80
2023/08/04 05:13:41;;;;;;;6.35;2.10;;;16.30;99.90;;;;;;6186223;23;20036;-80
2023/08/04 05:16:10;;;;;;;6.28;2.10;;;16.40;99.90;;;;;;6159559;23;20388;-80
2023/08/04 05:18:36;;;;;;;4.78;2.13;;;16.40;99.90;;;;;;6186001;23;20021;-79
2023/08/04 05:21:03;;;;;;;7.10;2.20;;;16.40;99.90;;;;;;6159570;23;20117;-80
2023/08/04 05:23:28;;;;;;;4.97;1.92;;;16.40;99.90;;;;;;6159272;23;20021;-79
2023/08/04 05:25:54;;;;;;;7.18;2.08;;;16.40;99.90;;;;;;6159404;23;20021;-80
2023/08/04 05:28:28;;;;;;;8.27;2.10;;;16.40;99.90;;;;;;6159644;23;20021;-80
2023/08/04 05:30:59;;;;;;;8.38;2.25;;;16.50;99.90;;;;;;6159672;23;20096;-79
2023/08/04 05:33:28;;;;;;;6.97;2.17;;;16.50;99.90;;;;;;6186137;23;20014;-80
2023/08/04 05:35:54;;;;;;;8.20;2.00;;;16.50;99.90;;;;;;6159570;23;20503;-80
2023/08/04 05:38:23;;;;;;;8.82;2.53;;;16.60;99.90;;;;;;6159589;23;20017;-80
2023/08/04 05:40:50;;;;;;;7.82;2.30;;;16.50;99.90;;;;;;6159514;23;20020;-80
2023/08/04 05:43:16;;;;;;;5.93;2.03;;;16.60;99.90;;;;;;6186188;23;20013;-79
2023/08/04 05:45:43;;;;;;;5.90;2.42;;;16.60;99.90;;;;;;6185596;23;20021;-79
2023/08/04 05:48:10;;;;;;;6.65;2.35;;;16.60;99.90;;;;;;6186101;23;20021;-79
2023/08/04 05:50:35;;;;;;;7.22;2.30;;;16.70;99.90;;;;;;6185512;23;20013;-79
2023/08/04 05:53:01;;;;;;;7.13;2.30;;;16.70;99.90;;;;;;6159297;23;20075;-80
2023/08/04 05:55:32;;;;;;;8.48;2.45;;;16.70;99.90;;;;;;6159512;23;20032;-79
2023/08/04 06:00:35;;;;;;;7.80;2.10;;;16.70;99.90;;;;;;6164108;23;20457;-79
2023/08/04 06:03:01;;;;;;;6.72;2.33;;;16.80;99.90;;;;;;6154595;23;20026;-79
2023/08/04 06:05:26;;;;;;;7.82;2.58;;;16.80;99.90;;;;;;6154347;23;20014;-79
2023/08/04 06:07:53;;;;;;;7.65;2.35;;;16.80;99.90;;;;;;6154379;23;20446;-80
2023/08/04 06:10:19;;;;;;;6.15;2.20;;;16.80;99.90;;;;;;6155971;23;20468;-79
2023/08/04 06:12:46;;;;;;;9.70;2.15;;;16.80;99.90;;;;;;6154337;23;20072;-79
2023/08/04 06:15:12;;;;;;;8.63;2.65;;;16.80;99.90;;;;;;6154352;23;20010;-79
2023/08/04 06:17:38;;;;;;;9.35;3.08;;;16.80;99.90;;;;;;6154369;23;20021;-79
2023/08/04 06:20:13;;;;;;;7.97;2.67;;;16.80;99.90;;;;;;6154386;23;20076;-79
2023/08/04 06:22:39;;;;;;;10.05;3.10;;;16.80;99.90;;;;;;6154230;23;20362;-79
2023/08/04 06:25:05;;;;;;;5.85;2.72;;;16.80;99.90;;;;;;6154171;23;20028;-80
2023/08/04 06:27:31;;;;;;;10.95;2.85;;;16.80;99.90;;;;;;6153065;23;20053;-79
2023/08/04 06:30:00;;;;;;;7.63;2.22;;;16.80;99.90;;;;;;6153951;23;20060;-80
2023/08/04 06:32:28;;;;;;;8.45;2.33;;;16.80;99.90;;;;;;6154033;23;20037;-78
2023/08/04 06:34:54;;;;;;;9.48;2.70;;;16.80;99.90;;;;;;6153847;23;20060;-78
2023/08/04 06:37:20;;;;;;;7.90;2.53;;;16.70;99.90;;;;;;6154073;23;20018;-79
2023/08/04 06:39:45;;;;;;;8.43;2.63;;;16.60;99.90;;;;;;6154011;23;20076;-77
2023/08/04 06:42:11;;;;;;;7.13;2.47;;;16.50;99.90;;;;;;6153849;23;20025;-78
2023/08/04 06:44:37;;;;;;;8.45;3.10;;;16.50;99.90;;;;;;6155796;23;20021;-78
2023/08/04 06:47:02;;;;;;;7.18;2.80;;;16.50;99.90;;;;;;6156115;23;20023;-78
2023/08/04 06:49:28;;;;;;;8.02;2.60;;;16.60;99.90;;;;;;6155990;23;20017;-79
2023/08/04 06:51:54;;;;;;;7.40;2.65;;;16.60;99.90;;;;;;6154010;23;20017;-77
2023/08/04 06:54:19;;;;;;;7.05;2.00;;;16.70;99.90;;;;;;6154160;23;20093;-78
2023/08/04 06:56:45;;;;;;;9.90;2.33;;;16.70;99.90;;;;;;6156858;23;20357;-78
2023/08/04 06:59:12;;;;;;;10.13;2.55;;;16.80;99.90;;;;;;6155505;23;20025;-78
2023/08/04 07:01:38;;;;;;;8.10;1.85;;;16.80;99.90;;;;;;6155388;23;20054;-78
2023/08/04 07:04:04;;;;;;;9.18;1.70;;;16.90;99.90;;;;;;6157096;23;20346;-78
2023/08/04 07:06:30;;;;;;;5.55;1.60;;;16.90;99.90;;;;;;6160578;23;20017;-80
2023/08/04 07:08:55;;;;;;;3.72;1.20;;;17.00;99.90;;;;;;6160542;23;20461;-79
2023/08/04 07:11:21;;;;;;;6.10;1.70;;;17.10;99.90;;;;;;6160568;23;20028;-77
2023/08/04 07:13:47;;;;;;;6.82;1.63;;;17.20;99.90;;;;;;6186809;23;20055;-78
2023/08/04 07:16:12;;;;;;;4.38;1.10;;;17.40;99.90;;;;;;6160566;23;20488;-80
2023/08/04 07:19:09;;;;;;;7.13;1.17;;;17.60;99.90;;;;;;6185326;23;20028;-78
2023/08/04 07:21:36;;;;;;;4.97;1.17;;;17.70;99.90;;;;;;6157755;23;20092;-77
2023/08/04 07:24:02;;;;;;;4.75;1.27;;;17.90;99.90;;;;;;6160371;23;20446;-78
2023/08/04 07:26:27;;;;;;;6.72;1.40;;;18.00;99.90;;;;;;6159796;23;20100;-80
2023/08/04 07:28:53;;;;;;;6.55;1.30;;;18.10;99.90;;;;;;6159788;23;20013;-78
2023/08/04 07:31:19;;;;;;;7.75;1.80;;;18.20;99.90;;;;;;6160366;23;20072;-80
2023/08/04 07:33:44;;;;;;;6.68;1.70;;;18.20;99.90;;;;;;6186850;23;20029;-76
2023/08/04 07:36:10;;;;;;;6.18;1.65;;;18.30;99.90;;;;;;6187001;23;20020;-75
2023/08/04 07:38:36;;;;;;;5.53;1.70;;;18.40;99.90;;;;;;6186609;23;20044;-77
2023/08/04 07:41:01;;;;;;;7.43;2.10;;;18.50;99.90;;;;;;6160378;23;20024;-77
2023/08/04 07:43:27;;;;;;;6.03;1.80;;;18.50;99.90;;;;;;6160402;23;20446;-76
2023/08/04 07:45:54;;;;;;;6.32;1.65;;;18.50;99.90;;;;;;6160233;23;20024;-76
2023/08/04 07:48:20;;;;;;;7.80;1.58;;;18.50;99.90;;;;;;6187060;23;20025;-90
2023/08/04 07:50:48;;;;;;;6.70;1.70;;;18.40;99.90;;;;;;6160278;23;20480;-79
2023/08/04 07:53:14;;;;;;;9.00;1.40;;;18.60;99.90;;;;;;6160389;23;20031;-78
2023/08/04 07:55:59;;;;;;;4.60;1.40;;;18.80;99.90;;;;;;6160399;23;20016;-79
2023/08/04 07:58:25;;;;;;;14.20;2.33;;;18.90;99.90;;;;;;6160462;23;20020;-78
2023/08/04 08:00:51;;;;;;;7.55;1.70;;;19.10;99.90;;;;;;6160296;23;20017;-79
2023/08/04 08:03:17;;;;;;;5.45;1.02;;;19.20;99.90;;;;;;6160203;23;20092;-80
2023/08/04 08:05:43;;;;;;;5.18;1.30;;;19.10;99.90;;;;;;6160252;23;20028;-79
2023/08/04 08:08:11;;;;;;;8.15;1.35;;;19.10;99.90;;;;;;6159919;23;20017;-78
2023/08/04 08:10:37;;;;;;;5.47;1.08;;;19.20;99.90;;;;;;6160214;23;20453;-79
2023/08/04 08:13:03;;;;;;;4.20;1.00;;;19.20;99.90;;;;;;6160247;23;20017;-79
2023/08/04 08:15:29;;;;;;;6.03;1.20;;;19.40;99.90;;;;;;6160080;23;20025;-79
2023/08/04 08:17:54;;;;;;;4.75;1.00;;;19.40;99.90;;;;;;6160172;23;20017;-79
2023/08/04 08:20:21;;;;;;;5.38;1.23;;;19.50;99.90;;;;;;6160015;23;20064;-79
2023/08/04 08:22:47;;;;;;;5.85;1.70;;;19.40;99.90;;;;;;6159795;23;20450;-80
2023/08/04 08:25:13;;;;;;;4.43;1.45;;;19.50;99.90;;;;;;6160055;23;20017;-79
2023/08/04 08:27:38;;;;;;;7.50;1.40;;;19.40;99.90;;;;;;6160118;23;20453;-79
2023/08/04 08:30:05;;;;;;;7.03;1.83;;;19.40;99.90;;;;;;6160028;23;20088;-79
2023/08/04 08:32:33;;;;;;;7.40;2.10;;;19.40;99.90;;;;;;6186560;23;20021;-79
2023/08/04 08:34:59;;;;;;;6.85;1.77;;;19.20;99.90;;;;;;6186455;23;20013;-79
2023/08/04 08:37:25;;;;;;;10.57;2.20;;;19.10;99.90;;;;;;6159951;23;20099;-80
2023/08/04 08:39:50;;;;;;;5.57;1.63;;;19.10;99.90;;;;;;6160019;23;20028;-81
2023/08/04 08:42:16;;;;;;;9.00;1.98;;;18.90;99.90;;;;;;6159988;23;20021;-80
2023/08/04 08:44:41;;;;;;;9.45;2.30;;;18.90;99.90;;;;;;6159723;23;20013;-81
2023/08/04 08:47:07;;;;;;;8.43;1.80;;;18.80;99.90;;;;;;6159840;23;20021;-81
2023/08/04 08:49:40;;;;;;;6.43;1.60;;;18.80;99.90;;;;;;6159952;23;20049;-79
2023/08/04 08:52:11;;;;;;;;;;;18.80;99.90;;;;;;6160497;23;20028;-81
2023/08/04 08:54:38;;;;;;;6.80;1.23;;;18.80;99.90;;;;;;6184690;23;19995;-80
2023/08/04 08:57:05;;;;;;;7.97;1.00;;;18.80;99.90;;;;;;6159870;23;20013;-80
2023/08/04 08:59:32;;;;;;;4.20;1.10;;;18.80;99.90;;;;;;6186400;23;20096;-80
2023/08/04 09:01:58;;;;;;;4.25;0.98;;;19.00;99.90;;;;;;6159763;23;20020;-80
2023/08/04 09:04:25;;;;;;;3.88;0.95;;;19.10;99.90;;;;;;6159717;23;20017;-81
2023/08/04 09:06:51;;;;;;;5.25;1.10;;;19.20;99.90;;;;;;6159569;23;20449;-81
2023/08/04 09:09:16;;;;;;;6.05;1.13;;;19.30;99.90;;;;;;6159797;23;20017;-80
2023/08/04 09:11:42;;;;;;;4.72;1.13;;;19.40;99.90;;;;;;6159595;23;20519;-80
2023/08/04 09:14:08;;;;;;;6.53;1.00;;;19.60;99.90;;;;;;6186283;23;20017;-79
2023/08/04 09:16:36;;;;;;;5.28;1.65;;;19.70;99.90;;;;;;6186282;23;20013;-79
2023/08/04 09:19:09;;;;;;;7.45;1.40;;;19.90;99.90;;;;;;6186095;23;20017;-79
2023/08/04 09:21:36;;;;;;;4.22;1.27;;;19.90;99.90;;;;;;6158983;23;20341;-81
2023/08/04 09:24:04;;;;;;;4.88;1.20;;;19.90;99.90;;;;;;6158584;23;20115;-79
2023/08/04 09:26:46;;;;;;;3.42;0.98;;;20.00;99.90;;;;;;6158452;23;20036;-80
2023/08/04 09:29:13;;;;;;;4.85;1.23;;;20.00;99.90;;;;;;6158499;23;20067;-79
2023/08/04 09:31:47;;;;;;;6.35;1.88;;;20.10;99.90;;;;;;6158360;23;20017;-79
2023/08/04 09:34:13;;;;;;;3.85;1.02;;;20.10;99.90;;;;;;6158415;23;20013;-80
2023/08/04 09:36:43;;;;;;;6.53;1.17;;;20.10;99.90;;;;;;6158184;23;20084;-79
2023/08/04 09:39:12;;;;;;;6.15;1.27;;;20.30;99.90;;;;;;6158289;23;20449;-79
2023/08/04 09:41:47;;;;;;;3.97;1.00;;;20.30;99.90;;;;;;6158272;23;20060;-81
2023/08/04 09:44:14;;;;;;;2.75;0.80;;;20.50;99.90;;;;;;6184816;23;20040;-80
2023/08/04 09:46:51;;;;;;;7.07;1.27;;;20.50;99.90;;;;;;6184918;23;20096;-79
2023/08/04 09:49:19;;;;;;;3.63;0.98;;;20.60;99.90;;;;;;6184809;23;20019;-79
2023/08/04 09:51:44;;;;;;;6.95;1.48;;;20.50;99.90;;;;;;6184892;23;20014;-79
2023/08/04 09:54:11;;;;;;;3.00;0.82;;;20.50;99.90;;;;;;6158147;23;20036;-79
2023/08/04 09:56:37;;;;;;;4.47;1.00;;;20.40;99.90;;;;;;6158202;23;20460;-80
2023/08/04 09:59:03;;;;;;;5.75;1.00;;;20.30;99.90;;;;;;6158225;23;20048;-80
2023/08/04 10:01:30;;;;;;;3.58;1.23;;;20.20;99.90;;;;;;6158121;23;20028;-81
2023/08/04 10:03:57;;;;;;;4.13;1.00;;;19.90;99.90;;;;;;6184649;23;20036;-80
2023/08/04 10:06:26;;;;;;;3.15;1.10;;;20.00;99.90;;;;;;6158053;23;20099;-79
2023/08/04 10:08:57;;;;;;;5.07;1.38;;;19.90;99.90;;;;;;6184721;23;20009;-79
2023/08/04 10:11:26;;;;;;;4.55;1.15;;;19.90;99.90;;;;;;6157886;23;20125;-81
2023/08/04 10:13:54;;;;;;;5.32;1.30;;;20.00;99.90;;;;;;6182828;23;20053;-81
2023/08/04 10:16:23;;;;;;;3.50;1.40;;;20.00;99.90;;;;;;6184673;23;20009;-79
2023/08/04 10:19:04;;;;;;;5.60;1.50;;;20.10;99.90;;;;;;6157993;23;20017;-81
2023/08/04 10:21:37;;;;;;;5.80;1.60;;;20.30;99.90;;;;;;6137526;23;1102584;-83
2023/08/04 10:24:04;;;;;;;5.05;1.25;;;20.40;99.90;;;;;;6159285;23;20048;-80
2023/08/04 10:26:34;;;;;;;4.90;1.45;;;20.60;99.90;;;;;;6185748;23;20092;-81
2023/08/04 10:29:03;;;;;;;6.95;1.95;;;20.70;99.90;;;;;;6186002;23;20013;-80
2023/08/04 10:31:51;;;;;;;5.63;1.30;;;20.80;99.90;;;;;;6159893;23;20021;-80
2023/08/04 10:34:22;;;;;;;4.90;1.70;;;20.70;99.90;;;;;;6160343;23;20035;-80
2023/08/04 10:37:07;;;;;;;6.10;1.50;;;20.70;99.90;;;;;;6160344;23;20516;-81
2023/08/04 10:39:40;;;;;;;5.30;1.40;;;20.70;99.90;;;;;;6187278;23;20028;-80
2023/08/04 10:42:12;;;;;;;5.38;1.20;;;20.80;99.90;;;;;;6160618;23;20441;-81
2023/08/04 10:45:05;;;;;;;5.73;1.40;;;21.00;99.90;;;;;;6160717;23;20021;-88
2023/08/04 10:47:34;;;;;;;4.88;1.33;;;21.10;99.90;;;;;;6157401;23;20256;-81
2023/08/04 10:50:01;;;;;;;6.25;1.67;;;21.00;99.90;;;;;;6159962;23;20354;-81
2023/08/04 10:52:27;;;;;;;7.68;1.63;;;21.20;99.90;;;;;;6160703;23;20021;-81
2023/08/04 10:54:53;;;;;;;5.90;1.80;;;21.40;99.90;;;;;;6160575;23;20093;-80
2023/08/04 10:57:21;;;;;;;8.57;2.28;;;21.40;99.90;;;;;;6187011;23;20098;-81
2023/08/04 10:59:50;;;;;;;3.60;1.33;;;21.40;99.90;;;;;;6160842;23;20088;-80
2023/08/04 11:02:20;;;;;;;7.35;1.73;;;21.50;99.90;;;;;;6160953;23;20021;-81
2023/08/04 11:04:47;;;;;;;7.07;1.85;;;21.70;99.90;;;;;;6160423;23;20079;-81
2023/08/04 11:07:17;;;;;;;7.13;1.55;;;21.90;99.90;;;;;;6160773;23;20087;-81
2023/08/04 11:09:45;;;;;;;6.85;2.00;;;21.80;99.90;;;;;;6160435;23;20024;-80
2023/08/04 11:12:11;;;;;;;6.88;1.65;;;21.80;99.90;;;;;;6184929;23;20465;-81
2023/08/04 11:14:37;;;;;;;10.85;2.28;;;21.70;99.90;;;;;;6160687;23;20087;-82
2023/08/04 11:17:14;;;;;;;6.20;1.70;;;22.00;99.90;;;;;;6160294;23;20024;-81
2023/08/04 11:19:43;;;;;;;4.35;1.48;;;22.00;99.90;;;;;;6160445;23;20080;-82
2023/08/04 11:22:12;;;;;;;7.45;1.40;;;22.00;99.90;;;;;;6159183;23;20080;-81
2023/08/04 11:24:38;;;;;;;4.63;0.98;;;22.00;99.90;;;;;;6160218;23;20076;-82
2023/08/04 11:28:09;;;;;;;5.15;1.02;;;21.80;99.90;;;;;;6158824;23;20013;-81
2023/08/04 11:31:08;;;;;;;3.97;1.30;;;21.90;99.90;;;;;;6154962;23;20028;-79
2023/08/04 11:33:53;;;;;;;5.35;1.55;;;21.70;99.90;;;;;;6130811;23;20025;-81
2023/08/04 11:36:22;;;;;;;3.80;1.35;;;21.80;99.90;;;;;;6130705;23;20032;-80
2023/08/04 11:38:48;;;;;;;5.80;1.30;;;21.70;99.90;;;;;;6157058;23;20130;-82
2023/08/04 11:41:15;;;;;;;4.82;1.33;;;21.80;99.90;;;;;;6130402;23;20017;-80
2023/08/04 11:43:41;;;;;;;4.47;1.00;;;21.80;99.90;;;;;;6129866;23;20021;-80
2023/08/04 11:46:08;;;;;;;3.80;0.88;;;21.90;99.90;;;;;;6156906;23;20017;-81
2023/08/04 11:48:38;;;;;;;2.28;0.85;;;21.90;99.90;;;;;;6130683;23;20141;-82
2023/08/04 11:51:07;;;;;;;4.72;1.40;;;21.90;99.90;;;;;;6130502;23;20025;-80
2023/08/04 11:53:33;;;;;;;6.40;0.90;;;21.90;99.90;;;;;;6131055;23;20041;-82
2023/08/04 11:56:07;;;;;;;3.70;1.33;;;22.00;99.90;;;;;;6155955;23;20017;-81
2023/08/04 11:58:36;;;;;;;6.03;1.65;;;21.90;99.90;;;;;;6130649;23;20013;-79
2023/08/04 12:01:05;;;;;;;6.63;1.63;;;21.90;99.90;;;;;;6130369;23;20029;-81
2023/08/04 12:03:50;;;;;;;7.60;1.85;;;21.90;99.90;;;;;;6130814;23;20024;-80
2023/08/04 12:06:23;;;;;;;4.85;1.75;;;21.80;99.90;;;;;;6156641;23;20473;-82
2023/08/04 12:08:51;;;;;;;6.63;1.80;;;21.50;99.90;;;;;;6130500;23;20045;-79
2023/08/04 12:11:17;;;;;;;7.00;2.00;;;21.20;99.90;;;;;;6130343;23;20021;-80
2023/08/04 12:13:43;;;;;;;5.05;1.80;;;21.00;99.90;;;;;;6130261;23;20022;-80
2023/08/04 12:16:09;;;;;;;8.10;2.20;;;20.90;99.90;;;;;;6130719;23;20040;-80
2023/08/04 12:18:35;;;;;;;6.75;2.15;;;20.90;99.90;;;;;;6155269;23;20010;-81
2023/08/04 12:21:01;;;;;;;8.10;2.55;;;20.80;99.90;;;;;;6130577;23;20022;-81
2023/08/04 12:23:27;;;;;;;6.50;2.17;;;20.90;99.90;;;;;;6130657;23;20017;-82
2023/08/04 12:25:53;;;;;;;7.47;2.05;;;20.90;99.90;;;;;;6156540;23;20018;-80
2023/08/04 12:28:18;;;;;;;5.47;1.88;;;21.00;99.90;;;;;;6130622;23;20088;-81
2023/08/04 12:30:44;;;;;;;4.47;1.30;;;21.20;99.90;;;;;;6143394;23;20028;-80
2023/08/04 12:33:10;;;;;;;4.53;1.25;;;21.20;99.90;;;;;;6160204;23;20468;-81
2023/08/04 12:35:35;;;;;;;3.90;1.25;;;21.30;99.90;;;;;;6159817;23;20021;-80
2023/08/04 12:38:04;;;;;;;2.63;1.00;;;21.50;99.90;;;;;;6160146;23;20093;-81
2023/08/04 12:40:34;;;;;;;4.40;1.70;;;21.60;99.90;;;;;;6159984;23;20025;-82
2023/08/04 12:43:00;;;;;;;5.05;1.20;;;21.90;99.90;;;;;;6186498;23;20024;-82
2023/08/04 12:45:26;;;;;;;8.70;1.33;;;22.10;99.90;;;;;;6159828;23;20017;-80
2023/08/04 12:47:52;;;;;;;5.90;1.15;;;22.00;99.90;;;;;;6159733;23;20024;-82
2023/08/04 12:50:18;;;;;;;5.50;1.33;;;21.90;99.90;;;;;;6186761;23;20016;-81
2023/08/04 12:52:44;;;;;;;2.70;1.00;;;22.00;99.90;;;;;;6159799;23;20021;-81